You are not logged in, Click here to log in
ICAO: KFLL Country: 美國佛羅里達州
Latitude: 26.0726 Longitude: -80.1527
Total Arrivals: 4 Total Departures: 4
Latest Arrival: NK101 (TNCM-KFLL)Jason. Li Latest Departure: DL8895 (KFLL-KMIA)ALAN. LIU
Scenery:
METAR : KFLL 210653Z 14005KT 10SM FEW026 FEW250 27/22 A3005 RMK AO2 SLP174 T02720217

勞德岱堡-好萊塢國際機場FLL